Ponte Branca, Brazil
Current Conditions -  °F | °C
As of 6:00 PM on Friday 24 Oct 2014 (Local Time) from SBCY Reporting Station
Rain Showers Rain Showers  
Wind Chill: 86°   Ceiling: 10000
Heat Index: 89°   Visibility: 6mi
Dew Point: 68°   Wind: 6mph
Humidity: 55%   Direction: 210°SSW
Pressure: NA   Gusts: NA
Location:  16.76°S, 52.83°W
Report Text: SBCY 242000Z 21005KT 9999 VCSH SCT020 FEW025TCU BKN100 30/20 Q1008
Loading
Personal Weather Stations






























Interactive Weather Map
Tropical Storm Tracking
New forecast layout! Learn more

10-Day Weather Forecast

Advertisements
Track Severe Weather on mobile